Strona główna
METAR-TAF:

METAR-TAF

Lotnisko :

Port lotniczy Cherbourg-Maupertus

Cherbourg, Francja

Szerokość geograficzna: 49-39N, Długość geograficzna: 001-28W, wysokość: 138 m

Aktualna obserwacja pogody

Raport powstał 27 minut temu, godzina 21:30 UTC
Wiatr 9 kt od południowy wschód
Temperatura 10°C
Wilgotność 71%
Ciśnienie 1016 hPa
Widzialność 10 km lub więcej
Brak chmur poniżej 1500 m i brak chmur cumulonimbus

METAR: LFRC 042130Z AUTO 13009KT CAVOK 10/05 Q1016

czas: 23:57 (21:57 UTC)


TAF: brakujący

Obserwacja i prognoza pogody dla ponad 4000 lotnisk (raport METAR i TAF).

Dostępne stacje oznaczono żółtymi i czerwonymi punktami na mapie.

Najedź kursorem aby zobaczyć nazwę stacji.

Kliknij aby zobaczyć obserwacje i prognozy pogody.

Aby zmienić mapę: kliknij na zielony przycisk z czarnym krzyżykiem, aby powiększyć; na zielony przycisk z myślnikiem, aby pomniejszyć; na zielone strzałki, aby przejść do map sąsiednich.


METAR-TAF: